In Rescue
 
Open Full Screen Window  High Contrast Mode
Wind Gusting 15 knots
11
March 19, 2019 6:24 PM CDT
Weather Information
Wind Direction
  220 °
Wind Speed
  11 kt (13 mph)
Wind Gust
  15 kt (17 mph)
Altimeter
29.96 in
Visibility
10 SM
Temperature
03° C
37° F
Dewpoint
00° C
32° F
Humidity
81%
1hr Rain Fall
00.00 in.
24hr Rain Fall
00.00 in.
Sky Condition
Clear
VFR

METAR KRRT 192324Z AUTO 22011G15KT 10SM CLR 03/00 A2996 RMK AO2

FAA Disclaimer: The data displayed is for advisory purposes only and is not to be used for flight planning or operations.